createdAt,value
2022-08-20T00:02:10.378Z,71.55
2022-08-20T00:04:39.560Z,71.35
2022-08-20T00:07:07.192Z,73.09
2022-08-20T00:09:36.650Z,73.39
2022-08-20T00:12:07.884Z,72.42
2022-08-20T00:14:35.233Z,74.28
2022-08-20T00:17:02.938Z,72.64
2022-08-20T00:19:30.387Z,72.35
2022-08-20T00:21:58.098Z,72.44
2022-08-20T00:24:25.814Z,71.42
2022-08-20T00:26:53.830Z,72.58
2022-08-20T00:29:22.207Z,72.97
2022-08-20T00:31:50.497Z,72.56
2022-08-20T00:34:18.344Z,72.43
2022-08-20T00:36:45.683Z,72.80
2022-08-20T00:39:12.921Z,72.42
2022-08-20T00:41:40.333Z,74.19
2022-08-20T00:44:15.490Z,72.84
2022-08-20T00:46:43.484Z,73.25
2022-08-20T00:49:12.540Z,73.11
2022-08-20T00:51:44.865Z,73.74
2022-08-20T00:54:31.365Z,70.75
2022-08-20T00:57:02.795Z,72.88
2022-08-20T00:59:31.125Z,72.48
2022-08-20T01:01:58.795Z,71.48
2022-08-20T01:04:26.849Z,71.23
2022-08-20T01:06:54.330Z,72.20
2022-08-20T01:09:50.094Z,69.89
2022-08-20T01:12:09.972Z,69.93
2022-08-20T01:14:46.634Z,72.17
2022-08-20T01:17:18.165Z,72.63
2022-08-20T01:19:47.777Z,72.44
2022-08-20T01:22:36.540Z,74.32
2022-08-20T01:25:08.900Z,72.62
2022-08-20T01:27:42.490Z,73.10
2022-08-20T01:30:10.190Z,72.96
2022-08-20T01:32:37.627Z,73.74
2022-08-20T01:35:05.654Z,74.29
2022-08-20T01:37:32.838Z,74.87
2022-08-20T01:40:00.379Z,74.28
2022-08-20T01:42:28.667Z,74.59
2022-08-20T01:44:55.850Z,75.94
2022-08-20T01:47:28.192Z,75.87
2022-08-20T01:49:56.349Z,74.93
2022-08-20T01:52:41.478Z,75.21
2022-08-20T01:55:09.880Z,75.72
2022-08-20T01:57:37.613Z,75.05
2022-08-20T02:00:20.071Z,74.45
2022-08-20T02:02:49.609Z,74.53
2022-08-20T02:05:17.764Z,73.83
2022-08-20T02:07:44.913Z,74.68
2022-08-20T02:10:13.147Z,73.72
2022-08-20T02:12:40.782Z,74.39
2022-08-20T02:15:10.541Z,74.47
2022-08-20T02:17:39.229Z,73.96
2022-08-20T02:20:11.600Z,73.04
2022-08-20T02:22:50.060Z,71.67
2022-08-20T02:25:18.439Z,71.89
2022-08-20T02:27:46.444Z,73.33
2022-08-20T02:30:21.227Z,73.50
2022-08-20T02:33:15.286Z,73.64
2022-08-20T02:35:44.118Z,73.47
2022-08-20T02:38:11.601Z,71.10
2022-08-20T02:40:38.828Z,70.63
2022-08-20T02:43:05.982Z,71.70
2022-08-20T02:45:37.433Z,72.62
2022-08-20T02:48:05.423Z,73.73
2022-08-20T02:50:32.601Z,72.53
2022-08-20T02:53:00.023Z,71.71
2022-08-20T02:55:28.373Z,71.21
2022-08-20T02:57:58.595Z,72.37
2022-08-20T03:00:27.256Z,73.05
2022-08-20T03:02:54.447Z,72.02
2022-08-20T03:05:21.626Z,72.11
2022-08-20T03:07:50.479Z,71.53
2022-08-20T03:10:17.657Z,71.79
2022-08-20T03:13:03.629Z,72.23
2022-08-20T03:15:31.643Z,73.92
2022-08-20T03:17:58.917Z,77.40
2022-08-20T03:20:26.427Z,75.25
2022-08-20T03:22:53.943Z,74.74
2022-08-20T03:25:21.204Z,73.38
2022-08-20T03:27:54.015Z,74.01
2022-08-20T03:30:22.661Z,73.42
2022-08-20T03:32:50.183Z,73.18
2022-08-20T03:35:17.949Z,73.54
2022-08-20T03:37:48.364Z,73.31
2022-08-20T03:40:22.913Z,73.92
2022-08-20T03:42:52.597Z,75.16
2022-08-20T03:45:20.698Z,74.68
2022-08-20T03:47:48.291Z,74.88
2022-08-20T03:50:23.123Z,73.66
2022-08-20T03:52:51.429Z,76.22
2022-08-20T03:55:19.182Z,77.70
2022-08-20T03:57:47.294Z,77.14
2022-08-20T04:00:15.868Z,74.73
2022-08-20T04:02:43.279Z,76.78
2022-08-20T04:05:10.454Z,78.18
2022-08-20T04:07:37.866Z,77.51
2022-08-20T04:10:06.107Z,76.79
2022-08-20T04:12:33.283Z,78.61
2022-08-20T04:15:02.338Z,76.53
2022-08-20T04:17:33.046Z,76.01
2022-08-20T04:20:02.224Z,74.80
2022-08-20T04:22:29.944Z,74.81
2022-08-20T04:24:57.378Z,74.39
2022-08-20T04:27:24.561Z,75.45
2022-08-20T04:29:51.713Z,73.61
2022-08-20T04:32:21.276Z,73.88
2022-08-20T04:34:51.454Z,74.60
2022-08-20T04:37:21.039Z,74.96
2022-08-20T04:40:08.713Z,73.51
2022-08-20T04:42:37.675Z,73.37
2022-08-20T04:45:06.918Z,74.67
2022-08-20T04:47:34.771Z,75.38
2022-08-20T04:50:02.511Z,76.17
2022-08-20T04:52:32.885Z,75.79
2022-08-20T04:55:00.195Z,75.33
2022-08-20T04:57:27.627Z,74.71
2022-08-20T04:59:59.375Z,74.30
2022-08-20T05:02:26.787Z,75.64
2022-08-20T05:04:54.233Z,74.09
2022-08-20T05:07:21.442Z,73.42
2022-08-20T05:09:48.621Z,73.64
2022-08-20T05:12:18.117Z,73.43
2022-08-20T05:14:45.702Z,73.50
2022-08-20T05:17:14.648Z,73.67
2022-08-20T05:19:42.552Z,72.90
2022-08-20T05:22:09.744Z,72.59
2022-08-20T05:24:36.900Z,72.76
2022-08-20T05:27:04.396Z,71.32
2022-08-20T05:29:31.819Z,70.20
2022-08-20T05:31:58.970Z,70.96
2022-08-20T05:34:26.418Z,72.33
2022-08-20T05:36:54.057Z,71.44
2022-08-20T05:39:22.678Z,70.61
2022-08-20T05:41:51.309Z,70.11
2022-08-20T05:44:18.723Z,70.28
2022-08-20T05:46:46.471Z,70.52
2022-08-20T05:49:19.969Z,68.56
2022-08-20T05:51:47.288Z,69.49
2022-08-20T05:54:15.004Z,69.12
2022-08-20T05:56:42.184Z,69.73
2022-08-20T05:59:09.646Z,70.03
2022-08-20T06:01:37.785Z,70.27
2022-08-20T06:04:24.126Z,69.86
2022-08-20T06:07:05.575Z,69.73
2022-08-20T06:09:33.466Z,69.37
2022-08-20T06:12:01.400Z,68.60
2022-08-20T06:14:28.611Z,68.63
2022-08-20T06:17:01.731Z,70.46
2022-08-20T06:19:32.281Z,70.01
2022-08-20T06:22:00.430Z,69.25
2022-08-20T06:24:27.786Z,69.35
2022-08-20T06:27:01.623Z,69.97
2022-08-20T06:29:29.247Z,69.74
2022-08-20T06:31:56.536Z,69.49
2022-08-20T06:34:28.428Z,69.14
2022-08-20T06:36:59.161Z,69.87
2022-08-20T06:39:27.170Z,69.53
2022-08-20T06:41:56.226Z,71.32
2022-08-20T06:44:24.283Z,71.94
2022-08-20T06:46:51.429Z,74.10
2022-08-20T06:49:18.667Z,72.17
2022-08-20T06:51:46.070Z,74.55
2022-08-20T06:54:19.007Z,71.74
2022-08-20T06:56:46.459Z,70.50
2022-08-20T06:59:13.615Z,72.79
2022-08-20T07:01:40.941Z,71.96
2022-08-20T07:04:08.467Z,70.84
2022-08-20T07:06:35.645Z,70.24
2022-08-20T07:09:02.830Z,68.38
2022-08-20T07:11:30.262Z,68.35
2022-08-20T07:13:58.460Z,68.47
2022-08-20T07:16:25.768Z,67.23
2022-08-20T07:18:53.234Z,68.62
2022-08-20T07:21:20.398Z,71.85
2022-08-20T07:23:49.557Z,69.68
2022-08-20T07:26:17.456Z,70.16
2022-08-20T07:28:44.646Z,69.91
2022-08-20T07:31:31.477Z,69.98
2022-08-20T07:34:00.242Z,70.29
2022-08-20T07:36:28.216Z,70.60
2022-08-20T07:38:56.950Z,70.79
2022-08-20T07:41:24.695Z,70.59
2022-08-20T07:43:51.864Z,70.57
2022-08-20T07:46:20.616Z,70.06
2022-08-20T07:48:50.051Z,71.24
2022-08-20T07:51:18.359Z,71.22
2022-08-20T07:53:46.363Z,71.67
2022-08-20T07:56:15.452Z,71.27
2022-08-20T07:58:50.192Z,70.57
2022-08-20T08:01:22.469Z,70.51
2022-08-20T08:03:50.833Z,70.81
2022-08-20T08:06:29.242Z,72.39
2022-08-20T08:08:59.491Z,70.77
2022-08-20T08:11:26.661Z,71.64
2022-08-20T08:13:54.634Z,71.29
2022-08-20T08:16:22.099Z,70.37
2022-08-20T08:18:50.103Z,70.32
2022-08-20T08:21:22.491Z,70.91
2022-08-20T08:23:50.246Z,69.27
2022-08-20T08:26:19.202Z,69.34
2022-08-20T08:28:46.691Z,69.28
2022-08-20T08:31:14.313Z,70.24
2022-08-20T08:33:41.735Z,71.97
2022-08-20T08:36:10.791Z,77.82
2022-08-20T08:38:38.962Z,76.12
2022-08-20T08:41:26.426Z,76.11
2022-08-20T08:43:54.040Z,75.09
2022-08-20T08:46:24.010Z,74.74
2022-08-20T08:48:53.402Z,72.70
2022-08-20T08:51:29.294Z,76.16
2022-08-20T08:53:56.981Z,75.26
2022-08-20T08:56:25.593Z,75.09
2022-08-20T08:58:55.580Z,73.59
2022-08-20T09:01:53.750Z,74.22
2022-08-20T09:04:10.434Z,72.05
2022-08-20T09:06:40.346Z,72.02
2022-08-20T09:09:07.930Z,73.46
2022-08-20T09:11:44.977Z,72.68
2022-08-20T09:14:12.882Z,75.42
2022-08-20T09:16:52.371Z,76.47
2022-08-20T09:19:21.144Z,77.18
2022-08-20T09:21:48.739Z,81.38
2022-08-20T09:24:15.944Z,86.17
2022-08-20T09:26:43.169Z,83.30
2022-08-20T09:29:10.622Z,84.90
2022-08-20T09:31:38.330Z,86.20
2022-08-20T09:34:06.208Z,89.12
2022-08-20T09:36:33.701Z,92.34
2022-08-20T09:39:03.084Z,85.44
2022-08-20T09:41:31.033Z,80.56
2022-08-20T09:44:01.331Z,83.22
2022-08-20T09:46:28.511Z,90.26
2022-08-20T09:48:55.686Z,88.03
2022-08-20T09:51:23.315Z,90.08
2022-08-20T09:53:50.452Z,90.57
2022-08-20T09:56:17.637Z,90.93
2022-08-20T09:58:52.199Z,93.43
2022-08-20T10:01:20.197Z,90.26
2022-08-20T10:03:48.979Z,90.25
2022-08-20T10:06:22.444Z,86.45
2022-08-20T10:08:50.099Z,84.52
2022-08-20T10:11:17.973Z,84.94
2022-08-20T10:13:45.471Z,84.49
2022-08-20T10:16:13.030Z,84.02
2022-08-20T10:18:40.293Z,84.27
2022-08-20T10:21:11.230Z,83.23
2022-08-20T10:23:38.685Z,84.73
2022-08-20T10:26:07.536Z,82.01
2022-08-20T10:28:34.938Z,83.31
2022-08-20T10:31:04.617Z,83.07
2022-08-20T10:33:31.826Z,78.82
2022-08-20T10:36:05.424Z,77.51
2022-08-20T10:38:32.869Z,77.78
2022-08-20T10:41:00.043Z,76.33
2022-08-20T10:43:28.131Z,77.65
2022-08-20T10:45:55.622Z,76.16
2022-08-20T10:48:22.972Z,74.53
2022-08-20T10:50:50.404Z,75.34
2022-08-20T10:53:18.201Z,76.16
2022-08-20T10:55:45.543Z,74.50
2022-08-20T10:58:13.285Z,74.25
2022-08-20T11:00:40.954Z,73.66
2022-08-20T11:03:08.236Z,74.52
2022-08-20T11:05:35.431Z,72.73
2022-08-20T11:08:03.788Z,70.10
2022-08-20T11:10:33.271Z,68.38
2022-08-20T11:13:01.069Z,69.24
2022-08-20T11:15:30.604Z,70.42
2022-08-20T11:17:57.925Z,70.10
2022-08-20T11:20:26.286Z,71.10
2022-08-20T11:22:54.236Z,70.88
2022-08-20T11:25:21.417Z,70.83
2022-08-20T11:27:49.539Z,69.11
2022-08-20T11:30:22.064Z,69.90
2022-08-20T11:32:49.434Z,69.69
2022-08-20T11:38:04.699Z,70.66
2022-08-20T11:40:32.204Z,69.97
2022-08-20T11:43:14.073Z,74.73
2022-08-20T11:45:42.786Z,71.32
2022-08-20T11:48:09.959Z,70.92
2022-08-20T11:50:37.113Z,70.86
2022-08-20T11:53:04.589Z,70.03
2022-08-20T11:55:32.662Z,68.77
2022-08-20T11:58:01.000Z,68.29
2022-08-20T12:00:32.154Z,70.78
2022-08-20T12:03:01.853Z,72.13
2022-08-20T12:05:29.964Z,70.39
2022-08-20T12:07:57.842Z,69.36
2022-08-20T12:10:26.795Z,70.06
2022-08-20T12:12:54.529Z,68.59
2022-08-20T12:15:21.711Z,67.06
2022-08-20T12:17:49.167Z,66.30
2022-08-20T12:20:16.382Z,66.70
2022-08-20T12:22:44.650Z,67.98
2022-08-20T12:25:12.465Z,64.18
2022-08-20T12:27:39.960Z,64.48
2022-08-20T12:30:15.270Z,66.67
2022-08-20T12:32:42.682Z,65.81
2022-08-20T12:35:10.080Z,65.71
2022-08-20T12:37:37.221Z,65.73
2022-08-20T12:40:06.227Z,66.36
2022-08-20T12:42:33.482Z,65.40
2022-08-20T12:45:00.631Z,64.25
2022-08-20T12:47:31.798Z,66.02
2022-08-20T12:50:05.000Z,64.67
2022-08-20T12:52:33.057Z,64.78
2022-08-20T12:55:00.559Z,65.16
2022-08-20T12:57:28.696Z,65.37
2022-08-20T12:59:56.853Z,65.14
2022-08-20T13:02:26.367Z,66.55
2022-08-20T13:04:53.591Z,66.87
2022-08-20T13:07:21.906Z,66.25
2022-08-20T13:09:49.449Z,65.74
2022-08-20T13:12:16.606Z,64.99
2022-08-20T13:14:44.048Z,65.71
2022-08-20T13:17:11.237Z,65.43
2022-08-20T13:19:38.807Z,66.32
2022-08-20T13:22:06.361Z,63.98
2022-08-20T13:24:33.994Z,65.58
2022-08-20T13:27:08.563Z,65.59
2022-08-20T13:29:36.321Z,63.90
2022-08-20T13:32:03.684Z,63.54
2022-08-20T13:34:31.085Z,63.31
2022-08-20T13:36:58.533Z,63.12
2022-08-20T13:39:25.702Z,62.16
2022-08-20T13:41:52.856Z,62.62
2022-08-20T13:44:20.370Z,61.07
2022-08-20T13:47:00.258Z,61.42
2022-08-20T13:49:27.688Z,62.71
2022-08-20T13:52:00.975Z,62.80
2022-08-20T13:54:30.450Z,63.61
2022-08-20T13:57:08.009Z,64.03
2022-08-20T13:59:39.088Z,62.58
2022-08-20T14:02:07.504Z,61.88
2022-08-20T14:04:35.163Z,63.75
2022-08-20T14:07:09.473Z,64.17
2022-08-20T14:09:40.832Z,63.53
2022-08-20T14:12:08.445Z,65.95
2022-08-20T14:14:35.720Z,64.52
2022-08-20T14:17:17.241Z,65.41
2022-08-20T14:19:45.027Z,63.76
2022-08-20T14:22:12.905Z,62.92
2022-08-20T14:24:40.174Z,62.56
2022-08-20T14:27:07.798Z,64.10
2022-08-20T14:29:36.012Z,63.83
2022-08-20T14:32:04.340Z,65.47
2022-08-20T14:34:32.067Z,62.95
2022-08-20T14:37:10.051Z,61.82
2022-08-20T14:39:37.290Z,63.03
2022-08-20T14:42:04.864Z,63.09
2022-08-20T14:44:32.031Z,65.05
2022-08-20T14:47:09.448Z,64.66
2022-08-20T14:49:36.924Z,63.59
2022-08-20T14:52:04.104Z,62.44
2022-08-20T14:54:31.270Z,63.38
2022-08-20T14:57:02.033Z,62.16
2022-08-20T14:59:29.677Z,65.15
2022-08-20T15:01:56.931Z,63.86
2022-08-20T15:04:24.386Z,63.78
2022-08-20T15:06:54.643Z,63.16
2022-08-20T15:09:21.915Z,62.84
2022-08-20T15:11:49.379Z,62.52
2022-08-20T15:14:18.424Z,63.32
2022-08-20T15:16:46.722Z,63.52
2022-08-20T15:19:14.145Z,64.60
2022-08-20T15:21:45.304Z,63.29
2022-08-20T15:24:19.130Z,64.00
2022-08-20T15:26:47.066Z,64.69
2022-08-20T15:29:22.915Z,64.25
2022-08-20T15:31:51.244Z,63.51
2022-08-20T15:34:18.564Z,62.98
2022-08-20T15:36:45.890Z,62.88
2022-08-20T15:39:13.335Z,63.18
2022-08-20T15:41:41.999Z,62.97
2022-08-20T15:44:09.201Z,61.87
2022-08-20T15:46:39.520Z,64.18
2022-08-20T15:49:10.171Z,63.27
2022-08-20T15:51:45.481Z,64.39
2022-08-20T15:54:15.703Z,63.21
2022-08-20T15:57:09.524Z,64.07
2022-08-20T15:59:55.591Z,63.91
2022-08-20T16:02:42.029Z,62.19
2022-08-20T16:05:21.659Z,62.64
2022-08-20T16:07:54.709Z,65.10
2022-08-20T16:10:34.693Z,64.39
2022-08-20T16:13:02.954Z,63.86
2022-08-20T16:15:30.983Z,63.44
2022-08-20T16:18:11.324Z,62.20
2022-08-20T16:20:40.483Z,64.10
2022-08-20T16:23:08.663Z,63.26
2022-08-20T16:25:55.114Z,62.91
2022-08-20T16:28:28.033Z,63.58
2022-08-20T16:31:14.949Z,61.80
2022-08-20T16:33:50.574Z,61.85
2022-08-20T16:36:30.066Z,61.52
2022-08-20T16:39:05.261Z,61.17
2022-08-20T16:41:39.972Z,62.62
2022-08-20T16:44:26.283Z,62.83
2022-08-20T16:46:59.177Z,62.24
2022-08-20T16:49:26.615Z,63.11
2022-08-20T16:51:53.882Z,63.42
2022-08-20T16:54:29.439Z,62.94
2022-08-20T16:57:05.643Z,61.57
2022-08-20T16:59:33.017Z,62.05
2022-08-20T17:02:01.609Z,62.04
2022-08-20T17:04:32.899Z,62.13
2022-08-20T17:07:02.731Z,62.29
2022-08-20T17:09:37.504Z,62.98
2022-08-20T17:12:15.304Z,63.13
2022-08-20T17:14:49.782Z,63.08
2022-08-20T17:17:18.782Z,63.45
2022-08-20T17:19:51.224Z,64.41
2022-08-20T17:22:21.809Z,63.93
2022-08-20T17:24:49.228Z,62.53
2022-08-20T17:27:27.735Z,62.89
2022-08-20T17:29:56.134Z,63.39
2022-08-20T17:32:27.415Z,63.25
2022-08-20T17:34:58.854Z,63.36
2022-08-20T17:37:28.015Z,63.42
2022-08-20T17:39:56.936Z,63.69
2022-08-20T17:42:26.503Z,62.59
2022-08-20T17:45:04.455Z,62.45
2022-08-20T17:47:33.169Z,63.61
2022-08-20T17:50:02.788Z,63.91
2022-08-20T17:52:31.953Z,64.02
2022-08-20T17:54:59.899Z,64.92
2022-08-20T17:57:28.311Z,64.01
2022-08-20T18:00:01.573Z,64.44
2022-08-20T18:02:32.376Z,64.07
2022-08-20T18:04:59.939Z,64.18
2022-08-20T18:07:30.484Z,64.62
2022-08-20T18:09:58.709Z,65.10
2022-08-20T18:12:34.206Z,64.87
2022-08-20T18:15:10.543Z,64.43
2022-08-20T18:17:41.022Z,64.45
2022-08-20T18:20:23.648Z,64.49
2022-08-20T18:22:53.915Z,65.72
2022-08-20T18:25:24.057Z,66.31
2022-08-20T18:27:51.599Z,65.81
2022-08-20T18:30:22.198Z,65.32
2022-08-20T18:32:49.841Z,65.02
2022-08-20T18:35:19.944Z,65.06
2022-08-20T18:37:48.201Z,65.82
2022-08-20T18:40:15.383Z,66.19
2022-08-20T18:42:42.927Z,66.98
2022-08-20T18:45:10.156Z,67.15
2022-08-20T18:47:37.256Z,66.13
2022-08-20T18:50:06.419Z,67.06
2022-08-20T18:52:47.569Z,67.41
2022-08-20T18:55:32.961Z,68.17
2022-08-20T18:58:01.318Z,66.76
2022-08-20T19:00:45.630Z,67.14
2022-08-20T19:03:15.451Z,66.88
2022-08-20T19:06:03.138Z,67.36
2022-08-20T19:08:48.374Z,67.76
2022-08-20T19:11:25.206Z,66.80
2022-08-20T19:13:52.345Z,67.15
2022-08-20T19:16:26.402Z,67.33
2022-08-20T19:18:54.231Z,67.36
2022-08-20T19:21:32.054Z,66.99
2022-08-20T19:24:01.241Z,67.84
2022-08-20T19:26:29.578Z,68.21
2022-08-20T19:29:00.975Z,68.40
2022-08-20T19:31:31.003Z,68.33
2022-08-20T19:34:02.115Z,68.49
2022-08-20T19:36:30.301Z,68.88
2022-08-20T19:38:59.305Z,68.15
2022-08-20T19:41:31.671Z,68.83
2022-08-20T19:43:59.893Z,67.43
2022-08-20T19:46:29.710Z,68.36
2022-08-20T19:48:56.821Z,70.38
2022-08-20T19:51:48.081Z,70.41
2022-08-20T19:54:22.656Z,69.67
2022-08-20T19:56:51.050Z,68.54
2022-08-20T19:59:21.928Z,68.81
2022-08-20T20:02:00.060Z,68.60
2022-08-20T20:04:29.825Z,69.59
2022-08-20T20:06:58.429Z,70.15
2022-08-20T20:09:27.293Z,69.72
2022-08-20T20:11:56.946Z,70.69
2022-08-20T20:14:27.773Z,71.26
2022-08-20T20:16:55.223Z,74.24
2022-08-20T20:19:26.823Z,72.47
2022-08-20T20:22:19.201Z,72.02
2022-08-20T20:24:50.001Z,73.17
2022-08-20T20:27:21.062Z,73.92
2022-08-20T20:29:49.145Z,72.80
2022-08-20T20:32:20.947Z,73.90
2022-08-20T20:34:56.345Z,70.87
2022-08-20T20:37:44.668Z,72.46
2022-08-20T20:40:25.753Z,72.31
2022-08-20T20:43:12.044Z,72.12
2022-08-20T20:45:46.008Z,70.47
2022-08-20T20:48:23.853Z,71.04
2022-08-20T20:50:51.533Z,71.34
2022-08-20T20:53:25.590Z,73.19
2022-08-20T20:56:24.553Z,72.70
2022-08-20T20:58:55.801Z,73.08
2022-08-20T21:01:27.213Z,71.51
2022-08-20T21:04:11.148Z,71.34
2022-08-20T21:06:38.596Z,72.62
2022-08-20T21:09:05.758Z,72.70
2022-08-20T21:11:32.939Z,71.64
2022-08-20T21:14:00.381Z,72.22
2022-08-20T21:16:27.558Z,73.16
2022-08-20T21:18:54.724Z,72.13
2022-08-20T21:21:22.184Z,72.98
2022-08-20T21:23:49.416Z,73.35
2022-08-20T21:26:16.575Z,73.19
2022-08-20T21:28:44.005Z,75.93
2022-08-20T21:31:11.170Z,76.78
2022-08-20T21:33:38.326Z,75.35
2022-08-20T21:36:05.892Z,73.20
2022-08-20T21:38:33.050Z,74.41
2022-08-20T21:41:00.201Z,73.64
2022-08-20T21:43:27.785Z,72.60
2022-08-20T21:46:01.429Z,75.22
2022-08-20T21:48:29.803Z,75.12
2022-08-20T21:50:56.980Z,73.15
2022-08-20T21:53:24.127Z,74.73
2022-08-20T21:55:51.542Z,74.07
2022-08-20T21:58:18.888Z,75.70
2022-08-20T22:00:48.314Z,73.72
2022-08-20T22:03:16.193Z,73.34
2022-08-20T22:05:43.594Z,73.55
2022-08-20T22:08:10.953Z,74.06
2022-08-20T22:10:38.499Z,75.12
2022-08-20T22:13:05.783Z,74.89
2022-08-20T22:15:33.092Z,73.73
2022-08-20T22:18:00.532Z,72.21
2022-08-20T22:20:27.874Z,73.36
2022-08-20T22:22:55.063Z,73.24
2022-08-20T22:25:23.306Z,74.33
2022-08-20T22:27:50.496Z,71.81
2022-08-20T22:30:17.713Z,75.52
2022-08-20T22:32:51.278Z,74.19
2022-08-20T22:35:19.474Z,74.02
2022-08-20T22:37:47.076Z,75.05
2022-08-20T22:40:14.269Z,73.28
2022-08-20T22:42:41.571Z,73.92
2022-08-20T22:45:13.442Z,71.79
2022-08-20T22:47:42.465Z,70.78
2022-08-20T22:50:10.946Z,72.61
2022-08-20T22:52:38.823Z,71.09
2022-08-20T22:55:06.197Z,72.37
2022-08-20T22:57:34.265Z,74.46
2022-08-20T23:00:01.699Z,73.56
2022-08-20T23:02:29.215Z,73.44
2022-08-20T23:04:56.673Z,72.75
2022-08-20T23:07:23.811Z,76.09
2022-08-20T23:09:51.111Z,75.15
2022-08-20T23:12:18.576Z,76.64
2022-08-20T23:14:45.759Z,74.71
2022-08-20T23:17:14.604Z,74.76
2022-08-20T23:19:42.079Z,72.85
2022-08-20T23:22:09.326Z,74.41
2022-08-20T23:24:36.565Z,73.18
2022-08-20T23:27:05.317Z,74.34
2022-08-20T23:29:32.580Z,72.92
2022-08-20T23:32:00.174Z,74.13
2022-08-20T23:34:27.715Z,72.32
2022-08-20T23:36:55.348Z,73.78
2022-08-20T23:39:22.604Z,72.46
2022-08-20T23:41:50.051Z,73.52
2022-08-20T23:44:25.805Z,72.66
2022-08-20T23:46:58.951Z,73.07
2022-08-20T23:49:27.039Z,72.03
2022-08-20T23:51:54.607Z,73.27
2022-08-20T23:54:21.768Z,72.36
2022-08-20T23:56:49.554Z,72.88
2022-08-20T23:59:18.383Z,72.94
